createdAt,value
2022-08-20T00:01:02.288Z,16.73
2022-08-20T00:02:05.289Z,16.50
2022-08-20T00:03:14.145Z,16.63
2022-08-20T00:04:16.463Z,17.35
2022-08-20T00:05:27.824Z,16.48
2022-08-20T00:06:30.107Z,16.85
2022-08-20T00:07:32.330Z,17.70
2022-08-20T00:08:34.884Z,17.20
2022-08-20T00:09:37.247Z,16.75
2022-08-20T00:10:42.064Z,17.40
2022-08-20T00:11:44.246Z,15.73
2022-08-20T00:12:49.260Z,17.25
2022-08-20T00:13:55.094Z,19.08
2022-08-20T00:14:57.343Z,16.52
2022-08-20T00:16:00.210Z,17.83
2022-08-20T00:17:04.246Z,17.45
2022-08-20T00:18:07.666Z,17.35
2022-08-20T00:19:10.228Z,17.70
2022-08-20T00:20:13.937Z,17.60
2022-08-20T00:21:19.033Z,16.52
2022-08-20T00:22:21.876Z,16.73
2022-08-20T00:23:25.053Z,18.00
2022-08-20T00:24:27.263Z,17.98
2022-08-20T00:25:29.779Z,16.00
2022-08-20T00:26:32.066Z,17.77
2022-08-20T00:27:34.298Z,16.15
2022-08-20T00:28:37.021Z,17.90
2022-08-20T00:29:39.260Z,18.17
2022-08-20T00:30:44.729Z,18.73
2022-08-20T00:31:46.964Z,18.83
2022-08-20T00:33:00.375Z,18.02
2022-08-20T00:34:02.694Z,17.15
2022-08-20T00:35:05.252Z,18.15
2022-08-20T00:36:10.831Z,18.42
2022-08-20T00:37:13.102Z,18.30
2022-08-20T00:38:15.682Z,19.00
2022-08-20T00:39:17.948Z,19.58
2022-08-20T00:40:31.074Z,18.75
2022-08-20T00:41:33.311Z,18.58
2022-08-20T00:42:51.036Z,18.10
2022-08-20T00:44:19.222Z,18.90
2022-08-20T00:45:21.697Z,18.38
2022-08-20T00:46:30.899Z,18.58
2022-08-20T00:47:34.389Z,17.58
2022-08-20T00:48:39.951Z,17.08
2022-08-20T00:49:42.194Z,18.13
2022-08-20T00:50:45.681Z,18.05
2022-08-20T00:51:53.546Z,18.95
2022-08-20T00:52:56.190Z,19.52
2022-08-20T00:54:17.006Z,18.88
2022-08-20T00:55:24.399Z,18.30
2022-08-20T00:56:30.712Z,18.40
2022-08-20T00:57:53.301Z,17.92
2022-08-20T00:59:01.992Z,20.02
2022-08-20T01:00:11.721Z,18.58
2022-08-20T01:01:15.854Z,18.92
2022-08-20T01:02:21.465Z,20.15
2022-08-20T01:03:24.347Z,19.75
2022-08-20T01:04:33.715Z,20.00
2022-08-20T01:05:42.658Z,19.92
2022-08-20T01:06:45.053Z,19.67
2022-08-20T01:07:48.503Z,19.92
2022-08-20T01:08:53.935Z,19.83
2022-08-20T01:09:59.552Z,20.70
2022-08-20T01:11:10.191Z,21.02
2022-08-20T01:12:14.391Z,20.00
2022-08-20T01:13:22.010Z,20.38
2022-08-20T01:14:28.690Z,20.73
2022-08-20T01:15:31.984Z,20.15
2022-08-20T01:16:36.702Z,19.45
2022-08-20T01:17:47.354Z,21.15
2022-08-20T01:18:50.645Z,21.58
2022-08-20T01:19:57.805Z,20.50
2022-08-20T01:21:04.193Z,21.20
2022-08-20T01:22:28.237Z,22.08
2022-08-20T01:23:44.843Z,21.08
2022-08-20T01:24:50.449Z,20.65
2022-08-20T01:26:09.706Z,19.80
2022-08-20T01:27:11.960Z,19.33
2022-08-20T01:28:22.861Z,20.17
2022-08-20T01:29:29.419Z,20.27
2022-08-20T01:30:33.108Z,21.00
2022-08-20T01:31:38.828Z,22.40
2022-08-20T01:32:41.187Z,22.15
2022-08-20T01:33:44.665Z,20.70
2022-08-20T01:34:48.562Z,20.60
2022-08-20T01:35:52.250Z,20.98
2022-08-20T01:36:57.721Z,20.73
2022-08-20T01:37:59.918Z,21.00
2022-08-20T01:39:05.102Z,21.73
2022-08-20T01:40:14.145Z,19.90
2022-08-20T01:41:41.425Z,21.88
2022-08-20T01:42:59.205Z,21.48
2022-08-20T01:44:03.155Z,21.25
2022-08-20T01:45:08.067Z,21.65
2022-08-20T01:46:10.545Z,21.23
2022-08-20T01:47:16.237Z,21.40
2022-08-20T01:48:19.643Z,20.48
2022-08-20T01:49:23.412Z,21.42
2022-08-20T01:50:30.768Z,22.67
2022-08-20T01:51:32.988Z,21.95
2022-08-20T01:52:56.988Z,23.10
2022-08-20T01:54:00.045Z,22.48
2022-08-20T01:55:02.657Z,21.95
2022-08-20T01:56:08.172Z,21.63
2022-08-20T01:57:13.923Z,22.20
2022-08-20T01:58:17.221Z,21.90
2022-08-20T01:59:19.535Z,21.50
2022-08-20T02:00:22.946Z,22.90
2022-08-20T02:01:27.597Z,22.08
2022-08-20T02:02:29.831Z,22.38
2022-08-20T02:03:37.392Z,21.63
2022-08-20T02:04:41.795Z,23.17
2022-08-20T02:05:44.171Z,21.02
2022-08-20T02:06:56.567Z,22.98
2022-08-20T02:08:00.334Z,23.02
2022-08-20T02:09:04.837Z,22.95
2022-08-20T02:10:11.149Z,23.35
2022-08-20T02:11:13.731Z,23.08
2022-08-20T02:12:17.747Z,23.13
2022-08-20T02:13:21.040Z,23.30
2022-08-20T02:14:23.679Z,23.20
2022-08-20T02:15:34.416Z,23.73
2022-08-20T02:16:41.746Z,22.73
2022-08-20T02:17:44.034Z,23.10
2022-08-20T02:18:46.993Z,23.95
2022-08-20T02:19:57.025Z,23.35
2022-08-20T02:20:59.877Z,23.92
2022-08-20T02:22:07.215Z,23.58
2022-08-20T02:23:10.186Z,24.00
2022-08-20T02:24:13.054Z,24.17
2022-08-20T02:25:17.636Z,23.63
2022-08-20T02:26:19.921Z,23.02
2022-08-20T02:27:24.435Z,25.27
2022-08-20T02:28:27.838Z,23.83
2022-08-20T02:29:30.131Z,23.83
2022-08-20T02:30:36.286Z,24.08
2022-08-20T02:31:43.595Z,24.52
2022-08-20T02:33:04.493Z,23.90
2022-08-20T02:34:21.738Z,22.92
2022-08-20T02:35:25.700Z,24.15
2022-08-20T02:36:28.003Z,24.00
2022-08-20T02:37:30.550Z,24.02
2022-08-20T02:38:35.506Z,24.02
2022-08-20T02:39:37.803Z,24.02
2022-08-20T02:40:40.102Z,22.98
2022-08-20T02:41:42.466Z,23.83
2022-08-20T02:42:47.239Z,25.52
2022-08-20T02:43:51.336Z,25.38
2022-08-20T02:44:54.634Z,24.13
2022-08-20T02:45:56.934Z,24.98
2022-08-20T02:47:00.361Z,25.08
2022-08-20T02:48:04.133Z,24.17
2022-08-20T02:49:06.422Z,24.27
2022-08-20T02:50:14.387Z,25.42
2022-08-20T02:51:16.708Z,24.75
2022-08-20T02:52:19.108Z,25.67
2022-08-20T02:53:22.681Z,25.48
2022-08-20T02:54:24.857Z,25.25
2022-08-20T02:55:28.222Z,24.77
2022-08-20T02:56:30.646Z,23.45
2022-08-20T02:57:40.621Z,24.25
2022-08-20T02:58:43.196Z,24.95
2022-08-20T02:59:45.444Z,24.33
2022-08-20T03:00:48.801Z,24.90
2022-08-20T03:02:00.191Z,25.80
2022-08-20T03:03:04.565Z,25.20
2022-08-20T03:04:06.805Z,25.50
2022-08-20T03:05:09.523Z,24.00
2022-08-20T03:06:14.085Z,25.95
2022-08-20T03:07:16.408Z,25.42
2022-08-20T03:08:26.261Z,24.33
2022-08-20T03:09:28.508Z,24.60
2022-08-20T03:10:34.062Z,24.55
2022-08-20T03:11:36.585Z,23.58
2022-08-20T03:12:39.124Z,23.95
2022-08-20T03:13:41.296Z,25.02
2022-08-20T03:14:44.175Z,24.63
2022-08-20T03:15:58.764Z,25.13
2022-08-20T03:17:01.567Z,25.20
2022-08-20T03:18:03.866Z,25.95
2022-08-20T03:19:06.034Z,24.40
2022-08-20T03:20:08.958Z,24.67
2022-08-20T03:21:14.636Z,25.20
2022-08-20T03:22:17.165Z,23.83
2022-08-20T03:23:21.103Z,25.67
2022-08-20T03:24:23.307Z,25.42
2022-08-20T03:25:25.617Z,25.52
2022-08-20T03:26:29.155Z,24.73
2022-08-20T03:27:33.013Z,25.23
2022-08-20T03:28:39.379Z,24.05
2022-08-20T03:29:41.576Z,22.73
2022-08-20T03:30:44.397Z,23.17
2022-08-20T03:31:48.854Z,24.02
2022-08-20T03:32:51.949Z,23.42
2022-08-20T03:33:54.222Z,23.58
2022-08-20T03:34:56.478Z,22.95
2022-08-20T03:35:58.933Z,23.77
2022-08-20T03:37:01.190Z,24.98
2022-08-20T03:38:08.216Z,22.92
2022-08-20T03:39:13.490Z,22.98
2022-08-20T03:40:24.071Z,22.77
2022-08-20T03:41:26.669Z,22.30
2022-08-20T03:42:29.032Z,22.83
2022-08-20T03:43:31.824Z,21.35
2022-08-20T03:44:34.837Z,21.60
2022-08-20T03:45:39.562Z,20.98
2022-08-20T03:46:41.809Z,20.38
2022-08-20T03:47:44.132Z,20.73
2022-08-20T03:48:46.522Z,20.75
2022-08-20T03:49:51.281Z,21.40
2022-08-20T03:50:53.660Z,19.30
2022-08-20T03:51:58.466Z,19.20
2022-08-20T03:53:01.494Z,18.40
2022-08-20T03:54:03.745Z,20.38
2022-08-20T03:55:08.537Z,18.77
2022-08-20T03:56:11.391Z,19.90
2022-08-20T03:57:16.147Z,18.95
2022-08-20T03:58:19.540Z,18.80
2022-08-20T03:59:23.686Z,17.67
2022-08-20T04:00:31.228Z,18.33
2022-08-20T04:01:46.174Z,17.65
2022-08-20T04:02:49.245Z,16.67
2022-08-20T04:03:55.141Z,17.05
2022-08-20T04:04:57.500Z,16.77
2022-08-20T04:05:59.916Z,16.08
2022-08-20T04:07:13.895Z,16.13
2022-08-20T04:08:20.111Z,15.68
2022-08-20T04:09:22.546Z,15.75
2022-08-20T04:10:25.558Z,15.60
2022-08-20T04:11:27.753Z,15.65
2022-08-20T04:12:30.004Z,14.93
2022-08-20T04:13:32.343Z,15.30
2022-08-20T04:14:36.737Z,14.30
2022-08-20T04:15:40.204Z,14.48
2022-08-20T04:16:43.281Z,14.80
2022-08-20T04:17:48.200Z,14.32
2022-08-20T04:19:01.335Z,14.77
2022-08-20T04:20:07.509Z,13.82
2022-08-20T04:21:11.566Z,14.38
2022-08-20T04:22:14.349Z,12.95
2022-08-20T04:23:16.815Z,14.00
2022-08-20T04:24:22.739Z,13.80
2022-08-20T04:25:36.344Z,13.15
2022-08-20T04:26:39.261Z,12.93
2022-08-20T04:27:42.564Z,12.90
2022-08-20T04:28:44.753Z,13.90
2022-08-20T04:29:47.120Z,11.73
2022-08-20T04:30:51.917Z,12.25
2022-08-20T04:31:55.954Z,12.00
2022-08-20T04:32:59.679Z,12.18
2022-08-20T04:34:02.450Z,12.25
2022-08-20T04:35:07.684Z,11.90
2022-08-20T04:36:10.777Z,11.05
2022-08-20T04:37:17.185Z,11.68
2022-08-20T04:38:26.428Z,11.27
2022-08-20T04:40:10.170Z,11.02
2022-08-20T04:41:22.593Z,11.10
2022-08-20T04:42:26.310Z,11.38
2022-08-20T04:43:31.235Z,10.90
2022-08-20T04:44:33.423Z,10.70
2022-08-20T04:45:35.663Z,10.75
2022-08-20T04:46:41.280Z,10.93
2022-08-20T04:47:43.555Z,10.35
2022-08-20T04:48:48.479Z,9.43
2022-08-20T04:49:51.434Z,10.27
2022-08-20T04:51:01.695Z,9.93
2022-08-20T04:52:06.178Z,10.00
2022-08-20T04:53:10.911Z,10.15
2022-08-20T04:54:14.881Z,10.60
2022-08-20T04:55:17.713Z,10.15
2022-08-20T04:56:24.460Z,9.82
2022-08-20T04:57:26.804Z,10.23
2022-08-20T04:58:35.059Z,10.00
2022-08-20T04:59:37.280Z,10.30
2022-08-20T05:00:39.829Z,10.50
2022-08-20T05:01:42.135Z,9.38
2022-08-20T05:02:44.818Z,9.50
2022-08-20T05:03:49.625Z,9.90
2022-08-20T05:04:51.922Z,10.25
2022-08-20T05:05:54.424Z,10.32
2022-08-20T05:06:56.600Z,10.98
2022-08-20T05:07:59.036Z,10.55
2022-08-20T05:09:01.530Z,10.57
2022-08-20T05:10:05.639Z,11.50
2022-08-20T05:11:35.813Z,11.63
2022-08-20T05:12:31.840Z,11.48
2022-08-20T05:13:34.061Z,11.95
2022-08-20T05:14:36.339Z,12.60
2022-08-20T05:15:39.258Z,14.70
2022-08-20T05:16:41.518Z,14.68
2022-08-20T05:17:44.557Z,14.25
2022-08-20T05:18:50.541Z,15.95
2022-08-20T05:19:54.905Z,14.60
2022-08-20T05:21:02.862Z,15.32
2022-08-20T05:22:05.047Z,16.20
2022-08-20T05:23:12.443Z,26.63
2022-08-20T05:24:15.009Z,35.53
2022-08-20T05:25:17.474Z,32.40
2022-08-20T05:26:20.548Z,32.35
2022-08-20T05:27:27.255Z,25.17
2022-08-20T05:28:32.970Z,24.08
2022-08-20T05:29:39.134Z,17.88
2022-08-20T05:30:43.595Z,18.27
2022-08-20T05:31:45.810Z,18.33
2022-08-20T05:32:49.403Z,19.17
2022-08-20T05:33:51.714Z,18.15
2022-08-20T05:34:54.932Z,18.10
2022-08-20T05:35:58.707Z,16.70
2022-08-20T05:37:04.354Z,16.88
2022-08-20T05:38:13.059Z,15.50
2022-08-20T05:39:16.310Z,15.85
2022-08-20T05:40:18.605Z,15.70
2022-08-20T05:41:29.110Z,14.35
2022-08-20T05:42:32.226Z,15.25
2022-08-20T05:43:34.438Z,14.73
2022-08-20T05:44:38.257Z,16.00
2022-08-20T05:45:42.711Z,15.52
2022-08-20T05:46:47.436Z,15.50
2022-08-20T05:47:54.245Z,14.25
2022-08-20T05:49:01.959Z,14.85
2022-08-20T05:50:06.028Z,15.18
2022-08-20T05:51:11.022Z,14.77
2022-08-20T05:52:15.448Z,15.07
2022-08-20T05:53:19.149Z,14.98
2022-08-20T05:54:22.088Z,14.93
2022-08-20T05:55:24.444Z,14.80
2022-08-20T05:56:30.742Z,15.15
2022-08-20T05:57:34.407Z,14.73
2022-08-20T05:58:37.272Z,15.10
2022-08-20T05:59:39.828Z,15.07
2022-08-20T06:00:42.038Z,15.10
2022-08-20T06:01:44.325Z,15.38
2022-08-20T06:03:05.068Z,14.80
2022-08-20T06:04:27.016Z,15.60
2022-08-20T06:05:31.776Z,15.18
2022-08-20T06:06:46.002Z,15.85
2022-08-20T06:07:50.819Z,15.85
2022-08-20T06:08:56.982Z,16.20
2022-08-20T06:10:00.536Z,15.00
2022-08-20T06:11:03.662Z,15.88
2022-08-20T06:12:08.494Z,15.13
2022-08-20T06:13:14.053Z,15.70
2022-08-20T06:14:17.160Z,16.77
2022-08-20T06:15:21.196Z,16.15
2022-08-20T06:16:29.059Z,17.42
2022-08-20T06:17:36.409Z,16.98
2022-08-20T06:18:41.939Z,16.85
2022-08-20T06:19:47.222Z,16.63
2022-08-20T06:20:50.587Z,16.67
2022-08-20T06:21:53.214Z,17.48
2022-08-20T06:22:56.249Z,16.90
2022-08-20T06:24:01.456Z,17.17
2022-08-20T06:25:07.463Z,16.40
2022-08-20T06:26:09.755Z,16.25
2022-08-20T06:27:15.137Z,17.00
2022-08-20T06:28:20.179Z,16.95
2022-08-20T06:29:22.425Z,17.05
2022-08-20T06:30:25.877Z,17.05
2022-08-20T06:31:28.534Z,17.05
2022-08-20T06:32:32.772Z,17.50
2022-08-20T06:33:35.236Z,17.73
2022-08-20T06:34:37.452Z,18.25
2022-08-20T06:35:39.856Z,18.40
2022-08-20T06:36:42.089Z,18.15
2022-08-20T06:37:44.299Z,18.67
2022-08-20T06:38:46.924Z,18.42
2022-08-20T06:39:53.143Z,18.17
2022-08-20T06:40:56.114Z,18.25
2022-08-20T06:41:58.857Z,17.58
2022-08-20T06:43:01.738Z,17.85
2022-08-20T06:44:06.656Z,19.50
2022-08-20T06:45:11.406Z,18.83
2022-08-20T06:46:14.711Z,19.25
2022-08-20T06:47:19.362Z,18.75
2022-08-20T06:48:21.552Z,19.45
2022-08-20T06:49:23.744Z,18.40
2022-08-20T06:50:31.328Z,19.38
2022-08-20T06:51:34.592Z,18.63
2022-08-20T06:52:52.274Z,19.02
2022-08-20T06:53:56.583Z,19.88
2022-08-20T06:54:58.998Z,19.02
2022-08-20T06:56:02.163Z,19.40
2022-08-20T06:57:04.651Z,20.17
2022-08-20T06:58:32.742Z,19.90
2022-08-20T06:59:33.310Z,19.35
2022-08-20T07:00:37.363Z,19.85
2022-08-20T07:01:39.760Z,19.70
2022-08-20T07:02:42.201Z,19.70
2022-08-20T07:03:54.499Z,20.95
2022-08-20T07:05:00.339Z,20.30
2022-08-20T07:06:02.622Z,20.88
2022-08-20T07:07:04.954Z,20.23
2022-08-20T07:08:12.339Z,22.05
2022-08-20T07:09:14.631Z,20.67
2022-08-20T07:10:21.443Z,20.60
2022-08-20T07:11:27.760Z,20.90
2022-08-20T07:12:30.776Z,21.95
2022-08-20T07:13:33.040Z,20.55
2022-08-20T07:14:35.980Z,21.83
2022-08-20T07:15:39.129Z,21.73
2022-08-20T07:16:42.167Z,22.27
2022-08-20T07:17:50.367Z,20.50
2022-08-20T07:18:52.670Z,22.42
2022-08-20T07:19:54.868Z,22.17
2022-08-20T07:20:58.265Z,22.20
2022-08-20T07:22:00.460Z,21.58
2022-08-20T07:23:08.450Z,21.70
2022-08-20T07:24:10.643Z,22.10
2022-08-20T07:25:16.229Z,19.73
2022-08-20T07:26:18.614Z,19.20
2022-08-20T07:27:22.697Z,18.15
2022-08-20T07:28:28.819Z,18.23
2022-08-20T07:29:51.229Z,17.48
2022-08-20T07:31:15.742Z,16.75
2022-08-20T07:32:37.204Z,17.02
2022-08-20T07:33:44.707Z,18.60
2022-08-20T07:34:47.040Z,18.17
2022-08-20T07:35:50.548Z,20.30
2022-08-20T07:36:52.713Z,20.23
2022-08-20T07:37:57.257Z,21.48
2022-08-20T07:38:59.542Z,21.25
2022-08-20T07:40:13.241Z,21.77
2022-08-20T07:41:15.651Z,22.90
2022-08-20T07:42:18.339Z,23.85
2022-08-20T07:43:23.318Z,23.38
2022-08-20T07:44:29.150Z,23.85
2022-08-20T07:45:34.364Z,24.95
2022-08-20T07:46:36.734Z,24.55
2022-08-20T07:47:42.440Z,24.98
2022-08-20T07:48:47.097Z,25.48
2022-08-20T07:49:49.273Z,26.30
2022-08-20T07:50:52.636Z,25.15
2022-08-20T07:51:58.257Z,26.00
2022-08-20T07:53:00.691Z,26.08
2022-08-20T07:54:10.407Z,26.45
2022-08-20T07:55:15.564Z,25.67
2022-08-20T07:56:21.586Z,26.55
2022-08-20T07:57:23.780Z,25.10
2022-08-20T07:58:27.672Z,26.83
2022-08-20T07:59:35.840Z,25.52
2022-08-20T08:00:38.688Z,26.55
2022-08-20T08:01:40.965Z,26.08
2022-08-20T08:02:43.349Z,25.67
2022-08-20T08:03:49.601Z,26.17
2022-08-20T08:04:52.557Z,25.40
2022-08-20T08:05:55.779Z,26.35
2022-08-20T08:07:00.247Z,25.80
2022-08-20T08:08:07.159Z,27.20
2022-08-20T08:09:14.249Z,25.73
2022-08-20T08:10:20.215Z,27.00
2022-08-20T08:11:22.684Z,26.55
2022-08-20T08:12:29.049Z,26.25
2022-08-20T08:13:35.905Z,27.23
2022-08-20T08:14:39.912Z,25.95
2022-08-20T08:15:46.781Z,26.23
2022-08-20T08:16:49.673Z,26.08
2022-08-20T08:17:55.540Z,24.88
2022-08-20T08:18:58.565Z,25.60
2022-08-20T08:20:01.439Z,25.45
2022-08-20T08:21:05.689Z,27.13
2022-08-20T08:22:14.356Z,26.23
2022-08-20T08:23:24.680Z,25.90
2022-08-20T08:24:34.587Z,25.48
2022-08-20T08:25:36.994Z,25.60
2022-08-20T08:26:39.453Z,25.50
2022-08-20T08:27:41.959Z,24.15
2022-08-20T08:28:44.580Z,26.80
2022-08-20T08:29:47.182Z,25.08
2022-08-20T08:30:49.744Z,25.08
2022-08-20T08:31:51.960Z,25.52
2022-08-20T08:33:13.138Z,25.10
2022-08-20T08:34:15.392Z,25.55
2022-08-20T08:35:17.871Z,25.42
2022-08-20T08:36:20.095Z,26.58
2022-08-20T08:37:22.372Z,25.85
2022-08-20T08:38:25.994Z,25.13
2022-08-20T08:39:31.754Z,25.30
2022-08-20T08:40:37.529Z,25.20
2022-08-20T08:41:49.984Z,25.75
2022-08-20T08:42:58.580Z,23.25
2022-08-20T08:44:08.317Z,24.38
2022-08-20T08:45:13.230Z,24.83
2022-08-20T08:46:18.928Z,24.50
2022-08-20T08:47:31.927Z,25.10
2022-08-20T08:48:37.617Z,23.40
2022-08-20T08:49:40.164Z,24.13
2022-08-20T08:50:52.900Z,24.42
2022-08-20T08:52:05.101Z,25.02
2022-08-20T08:53:15.572Z,25.30
2022-08-20T08:54:22.145Z,24.63
2022-08-20T08:55:27.550Z,23.08
2022-08-20T08:56:30.914Z,24.05
2022-08-20T08:57:33.874Z,24.92
2022-08-20T08:58:36.641Z,24.27
2022-08-20T08:59:48.566Z,23.38
2022-08-20T09:01:13.786Z,22.95
2022-08-20T09:02:38.899Z,23.58
2022-08-20T09:03:44.848Z,25.17
2022-08-20T09:04:47.527Z,23.88
2022-08-20T09:05:53.265Z,23.25
2022-08-20T09:06:55.539Z,24.27
2022-08-20T09:07:59.390Z,24.00
2022-08-20T09:09:04.155Z,23.65
2022-08-20T09:10:08.628Z,24.35
2022-08-20T09:11:10.891Z,23.17
2022-08-20T09:12:19.124Z,24.00
2022-08-20T09:13:23.999Z,24.05
2022-08-20T09:14:26.180Z,24.23
2022-08-20T09:15:28.357Z,23.00
2022-08-20T09:16:45.722Z,22.35
2022-08-20T09:17:53.827Z,23.63
2022-08-20T09:18:56.036Z,23.10
2022-08-20T09:19:58.245Z,22.52
2022-08-20T09:21:00.547Z,23.70
2022-08-20T09:22:14.126Z,22.85
2022-08-20T09:23:16.442Z,21.83
2022-08-20T09:24:18.874Z,23.20
2022-08-20T09:25:21.748Z,22.80
2022-08-20T09:26:23.921Z,21.27
2022-08-20T09:27:32.215Z,21.85
2022-08-20T09:28:37.163Z,22.13
2022-08-20T09:29:39.941Z,22.67
2022-08-20T09:30:42.280Z,22.42
2022-08-20T09:31:46.521Z,23.70
2022-08-20T09:32:48.784Z,22.42
2022-08-20T09:33:52.054Z,23.08
2022-08-20T09:34:56.580Z,23.25
2022-08-20T09:35:58.788Z,22.15
2022-08-20T09:37:01.134Z,23.42
2022-08-20T09:38:03.510Z,21.90
2022-08-20T09:39:05.738Z,21.92
2022-08-20T09:40:09.438Z,21.88
2022-08-20T09:41:11.674Z,23.05
2022-08-20T09:42:17.178Z,22.92
2022-08-20T09:43:19.483Z,23.08
2022-08-20T09:44:21.725Z,21.98
2022-08-20T09:45:24.306Z,21.83
2022-08-20T09:46:27.231Z,23.27
2022-08-20T09:47:29.835Z,23.23
2022-08-20T09:48:32.350Z,23.77
2022-08-20T09:49:36.897Z,23.02
2022-08-20T09:50:46.189Z,22.77
2022-08-20T09:51:48.492Z,23.25
2022-08-20T09:52:53.652Z,23.15
2022-08-20T09:53:56.050Z,23.05
2022-08-20T09:55:04.217Z,23.20
2022-08-20T09:56:06.719Z,23.92
2022-08-20T09:57:09.861Z,23.65
2022-08-20T09:58:35.161Z,24.10
2022-08-20T09:59:37.684Z,25.23
2022-08-20T10:00:40.577Z,25.05
2022-08-20T10:01:42.886Z,24.35
2022-08-20T10:02:45.328Z,24.08
2022-08-20T10:03:51.199Z,24.42
2022-08-20T10:04:53.575Z,23.00
2022-08-20T10:05:55.759Z,22.88
2022-08-20T10:06:58.004Z,23.77
2022-08-20T10:08:00.267Z,23.77
2022-08-20T10:09:03.397Z,22.98
2022-08-20T10:10:09.163Z,22.65
2022-08-20T10:11:11.712Z,24.63
2022-08-20T10:12:14.192Z,23.83
2022-08-20T10:13:16.416Z,23.30
2022-08-20T10:14:18.686Z,24.35
2022-08-20T10:15:20.991Z,23.42
2022-08-20T10:16:23.188Z,23.83
2022-08-20T10:17:25.414Z,23.67
2022-08-20T10:18:27.608Z,23.02
2022-08-20T10:19:31.316Z,23.90
2022-08-20T10:20:35.702Z,23.17
2022-08-20T10:21:38.986Z,23.10
2022-08-20T10:22:42.295Z,24.30
2022-08-20T10:23:44.552Z,22.88
2022-08-20T10:24:46.768Z,23.58
2022-08-20T10:25:48.996Z,24.08
2022-08-20T10:26:54.488Z,23.48
2022-08-20T10:27:57.068Z,23.48
2022-08-20T10:28:59.394Z,22.75
2022-08-20T10:30:02.283Z,24.25
2022-08-20T10:31:08.625Z,23.80
2022-08-20T10:32:14.805Z,23.10
2022-08-20T10:33:17.136Z,23.35
2022-08-20T10:34:19.623Z,22.98
2022-08-20T10:35:21.966Z,24.05
2022-08-20T10:36:24.178Z,24.45
2022-08-20T10:37:26.858Z,24.65
2022-08-20T10:38:29.055Z,23.80
2022-08-20T10:39:31.535Z,24.50
2022-08-20T10:40:33.908Z,24.55
2022-08-20T10:41:41.028Z,25.42
2022-08-20T10:42:43.917Z,24.95
2022-08-20T10:43:46.364Z,25.45
2022-08-20T10:44:48.783Z,23.60
2022-08-20T10:45:51.275Z,23.88
2022-08-20T10:46:53.602Z,23.33
2022-08-20T10:48:01.009Z,23.02
2022-08-20T10:49:03.411Z,24.55
2022-08-20T10:50:09.052Z,24.08
2022-08-20T10:51:11.346Z,23.20
2022-08-20T10:52:14.049Z,23.85
2022-08-20T10:53:17.263Z,22.58
2022-08-20T10:54:19.531Z,24.48
2022-08-20T10:55:21.779Z,23.58
2022-08-20T10:56:24.093Z,24.67
2022-08-20T10:57:28.916Z,23.73
2022-08-20T10:58:39.249Z,23.85
2022-08-20T10:59:44.029Z,24.75
2022-08-20T11:00:47.137Z,24.52
2022-08-20T11:01:49.427Z,23.90
2022-08-20T11:02:52.043Z,24.35
2022-08-20T11:03:54.253Z,24.40
2022-08-20T11:04:56.963Z,22.13
2022-08-20T11:06:01.792Z,23.85
2022-08-20T11:07:55.439Z,24.08
2022-08-20T11:08:57.048Z,22.70
2022-08-20T11:09:59.465Z,24.85
2022-08-20T11:11:02.206Z,25.30
2022-08-20T11:12:04.820Z,25.50
2022-08-20T11:13:08.437Z,24.58
2022-08-20T11:14:10.646Z,25.52
2022-08-20T11:15:13.729Z,25.50
2022-08-20T11:16:15.953Z,25.15
2022-08-20T11:17:23.666Z,25.10
2022-08-20T11:18:26.093Z,25.33
2022-08-20T11:19:28.684Z,25.35
2022-08-20T11:20:32.441Z,24.70
2022-08-20T11:21:34.643Z,24.50
2022-08-20T11:22:37.253Z,24.45
2022-08-20T11:23:39.534Z,25.77
2022-08-20T11:24:42.029Z,24.73
2022-08-20T11:25:48.448Z,25.10
2022-08-20T11:26:53.340Z,24.13
2022-08-20T11:27:57.072Z,23.83
2022-08-20T11:28:59.384Z,24.27
2022-08-20T11:30:02.879Z,25.02
2022-08-20T11:31:05.187Z,26.58
2022-08-20T11:32:07.425Z,25.25
2022-08-20T11:33:09.806Z,26.25
2022-08-20T11:34:12.852Z,26.08
2022-08-20T11:35:41.065Z,25.08
2022-08-20T11:36:38.207Z,24.23
2022-08-20T11:37:40.678Z,24.50
2022-08-20T11:38:43.160Z,25.38
2022-08-20T11:39:45.588Z,25.15
2022-08-20T11:40:47.898Z,25.45
2022-08-20T11:41:55.454Z,23.85
2022-08-20T11:43:14.115Z,24.50
2022-08-20T11:44:20.121Z,24.30
2022-08-20T11:45:23.595Z,25.02
2022-08-20T11:46:28.631Z,24.75
2022-08-20T11:47:33.806Z,25.27
2022-08-20T11:48:38.610Z,24.63
2022-08-20T11:49:40.799Z,24.65
2022-08-20T11:50:42.997Z,25.17
2022-08-20T11:51:49.637Z,24.88
2022-08-20T11:52:52.472Z,25.05
2022-08-20T11:53:54.893Z,23.38
2022-08-20T11:54:59.857Z,24.38
2022-08-20T11:56:02.162Z,24.48
2022-08-20T11:57:06.610Z,23.98
2022-08-20T11:58:09.842Z,24.00
2022-08-20T11:59:12.070Z,23.95
2022-08-20T12:00:33.151Z,24.50
2022-08-20T12:01:36.047Z,24.67
2022-08-20T12:02:38.377Z,23.52
2022-08-20T12:03:40.689Z,23.55
2022-08-20T12:04:42.878Z,24.83
2022-08-20T12:05:46.350Z,24.85
2022-08-20T12:06:48.607Z,23.55
2022-08-20T12:07:50.777Z,25.45
2022-08-20T12:08:52.964Z,24.40
2022-08-20T12:09:56.000Z,24.23
2022-08-20T12:11:00.101Z,24.38
2022-08-20T12:12:06.016Z,24.58
2022-08-20T12:13:08.749Z,23.85
2022-08-20T12:14:10.921Z,23.65
2022-08-20T12:15:13.119Z,22.92
2022-08-20T12:16:16.046Z,23.73
2022-08-20T12:17:24.234Z,22.95
2022-08-20T12:18:27.080Z,21.88
2022-08-20T12:19:29.396Z,22.58
2022-08-20T12:20:31.647Z,21.85
2022-08-20T12:21:33.917Z,21.73
2022-08-20T12:22:36.581Z,23.15
2022-08-20T12:23:38.865Z,22.20
2022-08-20T12:24:41.052Z,23.00
2022-08-20T12:25:46.616Z,21.13
2022-08-20T12:26:48.769Z,21.88
2022-08-20T12:27:51.115Z,22.75
2022-08-20T12:28:55.679Z,22.13
2022-08-20T12:30:00.509Z,21.55
2022-08-20T12:31:02.709Z,21.23
2022-08-20T12:32:07.544Z,21.48
2022-08-20T12:33:09.848Z,21.75
2022-08-20T12:34:12.100Z,22.02
2022-08-20T12:35:19.822Z,22.38
2022-08-20T12:36:22.005Z,22.25
2022-08-20T12:37:27.124Z,22.02
2022-08-20T12:38:29.357Z,22.50
2022-08-20T12:39:34.641Z,22.30
2022-08-20T12:40:37.232Z,20.42
2022-08-20T12:41:39.456Z,22.00
2022-08-20T12:42:42.352Z,21.98
2022-08-20T12:43:44.553Z,23.13
2022-08-20T12:44:47.218Z,23.58
2022-08-20T12:45:49.450Z,21.17
2022-08-20T12:46:51.690Z,21.90
2022-08-20T12:48:00.841Z,22.20
2022-08-20T12:49:03.309Z,21.35
2022-08-20T12:50:21.604Z,21.25
2022-08-20T12:51:23.821Z,20.27
2022-08-20T12:52:27.220Z,22.98
2022-08-20T12:53:29.416Z,22.20
2022-08-20T12:54:31.616Z,22.52
2022-08-20T12:55:34.262Z,21.48
2022-08-20T12:56:36.481Z,22.77
2022-08-20T12:58:01.009Z,21.38
2022-08-20T12:59:03.273Z,22.65
2022-08-20T13:00:11.259Z,22.08
2022-08-20T13:01:15.822Z,22.63
2022-08-20T13:02:18.867Z,22.30
2022-08-20T13:03:21.297Z,21.45
2022-08-20T13:04:24.270Z,20.92
2022-08-20T13:05:29.648Z,22.17
2022-08-20T13:06:31.839Z,21.15
2022-08-20T13:07:34.864Z,21.85
2022-08-20T13:08:37.046Z,22.13
2022-08-20T13:09:40.552Z,22.15
2022-08-20T13:10:47.016Z,20.42
2022-08-20T13:11:51.621Z,21.70
2022-08-20T13:12:54.245Z,22.55
2022-08-20T13:13:56.496Z,21.23
2022-08-20T13:15:01.661Z,21.02
2022-08-20T13:16:04.095Z,21.40
2022-08-20T13:17:07.069Z,21.63
2022-08-20T13:18:09.388Z,21.83
2022-08-20T13:19:11.581Z,22.95
2022-08-20T13:20:17.121Z,21.48
2022-08-20T13:21:23.786Z,22.67
2022-08-20T13:22:26.215Z,21.08
2022-08-20T13:23:28.639Z,21.13
2022-08-20T13:24:31.084Z,22.48
2022-08-20T13:25:34.203Z,23.48
2022-08-20T13:26:36.432Z,21.27
2022-08-20T13:27:43.261Z,21.60
2022-08-20T13:28:45.481Z,22.10
2022-08-20T13:29:57.762Z,21.75
2022-08-20T13:31:02.167Z,20.83
2022-08-20T13:32:05.302Z,21.23
2022-08-20T13:33:07.494Z,21.35
2022-08-20T13:34:09.871Z,22.02
2022-08-20T13:35:13.436Z,21.98
2022-08-20T13:36:15.631Z,22.40
2022-08-20T13:37:25.462Z,22.20
2022-08-20T13:38:28.306Z,23.77
2022-08-20T13:39:30.530Z,21.70
2022-08-20T13:40:32.902Z,22.55
2022-08-20T13:41:35.166Z,20.85
2022-08-20T13:42:37.756Z,22.92
2022-08-20T13:43:39.907Z,22.35
2022-08-20T13:44:42.391Z,23.10
2022-08-20T13:45:44.567Z,22.02
2022-08-20T13:46:48.205Z,22.40
2022-08-20T13:47:54.331Z,21.80
2022-08-20T13:48:56.564Z,23.10
2022-08-20T13:50:05.114Z,21.70
2022-08-20T13:51:07.319Z,22.20
2022-08-20T13:52:09.789Z,22.55
2022-08-20T13:53:12.102Z,21.80
2022-08-20T13:54:14.327Z,21.83
2022-08-20T13:55:21.694Z,22.08
2022-08-20T13:56:24.686Z,22.23